Time;durP1;ratioP1;P1;durP2;ratioP2;P2;SDS_P1;SDS_P2;PMS_P1;PMS_P2;Temp;Humidity;BMP_temperature;BMP_pressure;BME280_temperature;BME280_humidity;BME280_pressure;Samples;Min_cycle;Max_cycle;Signal;HPM_P1;HPM_P2
2022/10/20 00:00:25;;;;;;;;;;;;;;;;;;5052003;28;7171;-80
2022/10/20 00:02:50;;;;;;;;;;;;;;;;;;5052133;28;7139;-81
2022/10/20 00:05:16;;;;;;;;;;;;;;;;;;5051639;28;7144;-81
2022/10/20 00:07:41;;;;;;;;;;;;;;;;;;5052103;28;8263;-81
2022/10/20 00:10:07;;;;;;;;;;;;;;;;;;5051864;28;8702;-80
2022/10/20 00:12:33;;;;;;;;;;;;;;;;;;5051842;28;8360;-81
2022/10/20 00:14:58;;;;;;;;;;;;;;;;;;5051502;28;8438;-80
2022/10/20 00:17:24;;;;;;;;;;;;;;;;;;5051718;28;8327;-81
2022/10/20 00:19:50;;;;;;;;;;;;;;;;;;5051959;28;7082;-81
2022/10/20 00:22:15;;;;;;;;;;;;;;;;;;5051761;28;8534;-81
2022/10/20 00:24:41;;;;;;;;;;;;;;;;;;5053234;28;7188;-81
2022/10/20 00:27:06;;;;;;;;;;;;;;;;;;5051810;28;7221;-82
2022/10/20 00:29:34;;;;;;;;;;;;;;;;;;5051685;28;8380;-82
2022/10/20 00:31:59;;;;;;;;;;;;;;;;;;5051197;28;7036;-81
2022/10/20 00:34:25;;;;;;;;;;;;;;;;;;5051188;28;8389;-81
2022/10/20 00:36:50;;;;;;;;;;;;;;;;;;5051779;28;8384;-80
2022/10/20 00:39:16;;;;;;;;;;;;;;;;;;5051053;28;8422;-81
2022/10/20 00:41:41;;;;;;;;;;;;;;;;;;5050859;28;8448;-81
2022/10/20 00:44:25;;;;;;;;;;;;;;;;;;5050974;28;8675;-81
2022/10/20 00:46:51;;;;;;;;;;;;;;;;;;5034640;28;8484;-80
2022/10/20 00:49:20;;;;;;;;;;;;;;;;;;5051192;28;7432;-80
2022/10/20 00:51:47;;;;;;;;;;;;;;;;;;5050895;28;7142;-81
2022/10/20 00:54:17;;;;;;;;;;;;;;;;;;5050898;28;7172;-83
2022/10/20 00:56:46;;;;;;;;;;;;;;;;;;5050777;28;7324;-81
2022/10/20 00:59:15;;;;;;;;;;;;;;;;;;5050651;28;8417;-81
2022/10/20 01:01:42;;;;;;;;;;;;;;;;;;5050802;28;7030;-81
2022/10/20 01:04:07;;;;;;;;;;;;;;;;;;5050841;28;7146;-81
2022/10/20 01:06:34;;;;;;;;;;;;;;;;;;5050637;28;7376;-81
2022/10/20 01:08:59;;;;;;;;;;;;;;;;;;5049937;28;8870;-79
2022/10/20 01:11:35;;;;;;;;;;;;;;;;;;5050910;28;8422;-81
2022/10/20 01:14:19;;;;;;;;;;;;;;;;;;5051104;28;7053;-81
2022/10/20 01:16:47;;;;;;;;;;;;;;;;;;5033559;28;8394;-80
2022/10/20 01:19:46;;;;;;;;;;;;;;;;;;5034100;28;8771;-81
2022/10/20 01:22:24;;;;;;;;;;;;;;;;;;5050490;28;7193;-81
2022/10/20 01:24:55;;;;;;;;;;;;;;;;;;5033510;28;8434;-81
2022/10/20 01:27:30;;;;;;;;;;;;;;;;;;5034279;28;8387;-82
2022/10/20 01:30:04;;;;;;;;;;;;;;;;;;5050504;28;7326;-81
2022/10/20 01:32:39;;;;;;;;;;;;;;;;;;5050249;28;7181;-81
2022/10/20 01:35:07;;;;;;;;;;;;;;;;;;5050364;28;7430;-81
2022/10/20 01:37:53;;;;;;;;;;;;;;;;;;5033440;28;8544;-81
2022/10/20 01:40:18;;;;;;;;;;;;;;;;;;5049350;28;8348;-81
2022/10/20 01:42:48;;;;;;;;;;;;;;;;;;5033480;28;6996;-81
2022/10/20 01:45:17;;;;;;;;;;;;;;;;;;5049946;28;8390;-80
2022/10/20 01:47:44;;;;;;;;;;;;;;;;;;5050352;28;8384;-81
2022/10/20 01:50:12;;;;;;;;;;;;;;;;;;5050458;28;7025;-81
2022/10/20 01:52:37;;;;;;;;;;;;;;;;;;5050281;28;8368;-81
2022/10/20 01:55:10;;;;;;;;;;;;;;;;;;5050161;28;7216;-82
2022/10/20 01:57:50;;;;;;;;;;;;;;;;;;5034501;28;6916;-79
2022/10/20 02:00:17;;;;;;;;;;;;;;;;;;5050003;28;8795;-81
2022/10/20 02:03:05;;;;;;;;;;;;;;;;;;5050524;28;8579;-81
2022/10/20 02:06:06;;;;;;;;;;;;;;;;;;5050683;28;9333;-81
2022/10/20 02:08:38;;;;;;;;;;;;;;;;;;4974085;28;8393;-81
2022/10/20 02:11:09;;;;;;;;;;;;;;;;;;5021081;28;7215;-81
2022/10/20 02:13:37;;;;;;;;;;;;;;;;;;5050435;28;8779;-82
2022/10/20 02:16:08;;;;;;;;;;;;;;;;;;5050363;28;7038;-82
2022/10/20 02:18:39;;;;;;;;;;;;;;;;;;5050080;28;8392;-81
2022/10/20 02:21:06;;;;;;;;;;;;;;;;;;5053226;28;7179;-81
2022/10/20 02:23:35;;;;;;;;;;;;;;;;;;5053664;28;8309;-81
2022/10/20 02:26:03;;;;;;;;;;;;;;;;;;5053525;28;7250;-81
2022/10/20 02:28:32;;;;;;;;;;;;;;;;;;5053715;28;8498;-82
2022/10/20 02:30:57;;;;;;;;;;;;;;;;;;5053967;28;7314;-81
2022/10/20 02:33:24;;;;;;;;;;;;;;;;;;5054031;28;7029;-81
2022/10/20 02:35:55;;;;;;;;;;;;;;;;;;5053981;28;8390;-81
2022/10/20 02:38:21;;;;;;;;;;;;;;;;;;5053307;28;8734;-81
2022/10/20 02:40:46;;;;;;;;;;;;;;;;;;5053389;28;8576;-82
2022/10/20 02:43:12;;;;;;;;;;;;;;;;;;5053633;28;8688;-81
2022/10/20 02:45:37;;;;;;;;;;;;;;;;;;5053232;28;7156;-82
2022/10/20 02:48:03;;;;;;;;;;;;;;;;;;5053515;28;8390;-81
2022/10/20 02:50:29;;;;;;;;;;;;;;;;;;5053372;28;7310;-81
2022/10/20 02:52:54;;;;;;;;;;;;;;;;;;5053377;28;8628;-79
2022/10/20 02:55:20;;;;;;;;;;;;;;;;;;5053387;28;7317;-81
2022/10/20 02:57:46;;;;;;;;;;;;;;;;;;5052788;28;8475;-81
2022/10/20 03:00:11;;;;;;;;;;;;;;;;;;5053062;28;8665;-81
2022/10/20 03:02:37;;;;;;;;;;;;;;;;;;5053032;28;7152;-81
2022/10/20 03:05:03;;;;;;;;;;;;;;;;;;5052797;28;8897;-81
2022/10/20 03:07:28;;;;;;;;;;;;;;;;;;5053081;28;8371;-79
2022/10/20 03:09:53;;;;;;;;;;;;;;;;;;5053080;28;8443;-81
2022/10/20 03:12:19;;;;;;;;;;;;;;;;;;5052818;28;8406;-81
2022/10/20 03:14:44;;;;;;;;;;;;;;;;;;5053026;28;8444;-80
2022/10/20 03:17:10;;;;;;;;;;;;;;;;;;5053025;28;7148;-81
2022/10/20 03:19:35;;;;;;;;;;;;;;;;;;5052846;28;7140;-80
2022/10/20 03:22:01;;;;;;;;;;;;;;;;;;5052875;28;7393;-81
2022/10/20 03:24:26;;;;;;;;;;;;;;;;;;5052704;28;8284;-82
2022/10/20 03:26:52;;;;;;;;;;;;;;;;;;5052497;28;7266;-81
2022/10/20 03:29:17;;;;;;;;;;;;;;;;;;5053449;28;8275;-81
2022/10/20 03:31:43;;;;;;;;;;;;;;;;;;5051275;28;8693;-81
2022/10/20 03:34:08;;;;;;;;;;;;;;;;;;5052858;28;8787;-80
2022/10/20 03:36:34;;;;;;;;;;;;;;;;;;5052712;28;8591;-82
2022/10/20 03:38:59;;;;;;;;;;;;;;;;;;5052195;28;8451;-79
2022/10/20 03:41:25;;;;;;;;;;;;;;;;;;5052536;28;7000;-79
2022/10/20 03:43:50;;;;;;;;;;;;;;;;;;5052434;28;8720;-80
2022/10/20 03:46:16;;;;;;;;;;;;;;;;;;5052423;28;7156;-81
2022/10/20 03:48:41;;;;;;;;;;;;;;;;;;5035514;28;6993;-81
2022/10/20 03:51:08;;;;;;;;;;;;;;;;;;5051914;28;8715;-81
2022/10/20 03:53:34;;;;;;;;;;;;;;;;;;5052015;28;7219;-81
2022/10/20 03:56:08;;;;;;;;;;;;;;;;;;5052058;28;8469;-81
2022/10/20 03:58:34;;;;;;;;;;;;;;;;;;5052112;28;8621;-81
2022/10/20 04:01:00;;;;;;;;;;;;;;;;;;5051898;28;8594;-80
2022/10/20 04:03:25;;;;;;;;;;;;;;;;;;5052269;28;8417;-80
2022/10/20 04:05:51;;;;;;;;;;;;;;;;;;5051829;28;7217;-80
2022/10/20 04:08:16;;;;;;;;;;;;;;;;;;5052329;28;8455;-81
2022/10/20 04:10:42;;;;;;;;;;;;;;;;;;5051878;28;7203;-81
2022/10/20 04:13:08;;;;;;;;;;;;;;;;;;5051618;28;8337;-82
2022/10/20 04:15:33;;;;;;;;;;;;;;;;;;5051936;28;8374;-81
2022/10/20 04:17:58;;;;;;;;;;;;;;;;;;5051828;28;7145;-81
2022/10/20 04:20:24;;;;;;;;;;;;;;;;;;5053947;28;8459;-80
2022/10/20 04:22:49;;;;;;;;;;;;;;;;;;5051716;28;8593;-81
2022/10/20 04:25:15;;;;;;;;;;;;;;;;;;5053504;28;7156;-81
2022/10/20 04:27:41;;;;;;;;;;;;;;;;;;5051953;28;8861;-80
2022/10/20 04:30:07;;;;;;;;;;;;;;;;;;5051217;28;8685;-81
2022/10/20 04:32:33;;;;;;;;;;;;;;;;;;5052014;28;7142;-79
2022/10/20 04:34:59;;;;;;;;;;;;;;;;;;5051220;28;7148;-81
2022/10/20 04:37:25;;;;;;;;;;;;;;;;;;5035701;28;7358;-81
2022/10/20 04:39:50;;;;;;;;;;;;;;;;;;5051702;28;7009;-79
2022/10/20 04:42:17;;;;;;;;;;;;;;;;;;5051124;28;8438;-80
2022/10/20 04:44:42;;;;;;;;;;;;;;;;;;5051421;28;7098;-80
2022/10/20 04:47:08;;;;;;;;;;;;;;;;;;5051666;28;8449;-79
2022/10/20 04:49:34;;;;;;;;;;;;;;;;;;5050965;28;8676;-80
2022/10/20 04:51:59;;;;;;;;;;;;;;;;;;5051257;28;8434;-81
2022/10/20 04:54:25;;;;;;;;;;;;;;;;;;5051258;28;7134;-82
2022/10/20 04:56:50;;;;;;;;;;;;;;;;;;5051387;28;7285;-82
2022/10/20 04:59:16;;;;;;;;;;;;;;;;;;5051263;28;7316;-81
2022/10/20 05:01:41;;;;;;;;;;;;;;;;;;5050981;28;8154;-82
2022/10/20 05:04:08;;;;;;;;;;;;;;;;;;5050747;28;8474;-82
2022/10/20 05:06:33;;;;;;;;;;;;;;;;;;5050193;28;7242;-82
2022/10/20 05:09:01;;;;;;;;;;;;;;;;;;5051021;28;7022;-81
2022/10/20 05:11:27;;;;;;;;;;;;;;;;;;5051025;28;7141;-82
2022/10/20 05:13:54;;;;;;;;;;;;;;;;;;5050660;28;7168;-82
2022/10/20 05:16:20;;;;;;;;;;;;;;;;;;5050362;28;9383;-80
2022/10/20 05:18:47;;;;;;;;;;;;;;;;;;5034471;28;7234;-82
2022/10/20 05:21:14;;;;;;;;;;;;;;;;;;5034132;28;8321;-83
2022/10/20 05:23:40;;;;;;;;;;;;;;;;;;5033702;28;8425;-83
2022/10/20 05:26:08;;;;;;;;;;;;;;;;;;5033839;28;8421;-82
2022/10/20 05:28:33;;;;;;;;;;;;;;;;;;5034080;28;8590;-81
2022/10/20 05:31:03;;;;;;;;;;;;;;;;;;5050069;28;8578;-82
2022/10/20 05:33:29;;;;;;;;;;;;;;;;;;5050215;28;8437;-82
2022/10/20 05:35:55;;;;;;;;;;;;;;;;;;5049658;28;8550;-83
2022/10/20 05:38:21;;;;;;;;;;;;;;;;;;5049981;28;8378;-82
2022/10/20 05:40:46;;;;;;;;;;;;;;;;;;5049903;28;6819;-80
2022/10/20 05:43:12;;;;;;;;;;;;;;;;;;5047043;28;8595;-80
2022/10/20 05:45:38;;;;;;;;;;;;;;;;;;5049899;28;8578;-79
2022/10/20 05:48:04;;;;;;;;;;;;;;;;;;5049533;28;7316;-81
2022/10/20 05:50:29;;;;;;;;;;;;;;;;;;5050280;28;8490;-80
2022/10/20 05:52:55;;;;;;;;;;;;;;;;;;5050717;28;7190;-79
2022/10/20 05:55:20;;;;;;;;;;;;;;;;;;5052003;28;7173;-80
2022/10/20 05:57:48;;;;;;;;;;;;;;;;;;5054781;28;7273;-80
2022/10/20 06:00:14;;;;;;;;;;;;;;;;;;5054388;28;7136;-81
2022/10/20 06:02:40;;;;;;;;;;;;;;;;;;5054185;28;7610;-81
2022/10/20 06:05:06;;;;;;;;;;;;;;;;;;5054214;28;8751;-81
2022/10/20 06:07:31;;;;;;;;;;;;;;;;;;5055481;28;8699;-80
2022/10/20 06:09:57;;;;;;;;;;;;;;;;;;5054257;28;8345;-81
2022/10/20 06:12:23;;;;;;;;;;;;;;;;;;5054134;28;7117;-80
2022/10/20 06:14:49;;;;;;;;;;;;;;;;;;5054239;28;8463;-80
2022/10/20 06:17:14;;;;;;;;;;;;;;;;;;5053682;28;8540;-81
2022/10/20 06:19:39;;;;;;;;;;;;;;;;;;5053976;28;6997;-80
2022/10/20 06:22:05;;;;;;;;;;;;;;;;;;5053674;28;8536;-80
2022/10/20 06:24:30;;;;;;;;;;;;;;;;;;5053823;28;8594;-82
2022/10/20 06:26:56;;;;;;;;;;;;;;;;;;5054238;28;8454;-80
2022/10/20 06:29:21;;;;;;;;;;;;;;;;;;5053823;28;8468;-80
2022/10/20 06:31:49;;;;;;;;;;;;;;;;;;5053645;28;8380;-80
2022/10/20 06:34:19;;;;;;;;;;;;;;;;;;5053826;28;8103;-81
2022/10/20 06:36:46;;;;;;;;;;;;;;;;;;5053848;28;7159;-82
2022/10/20 06:39:13;;;;;;;;;;;;;;;;;;5053603;28;8377;-81
2022/10/20 06:41:39;;;;;;;;;;;;;;;;;;5052193;28;9632;-80
2022/10/20 06:44:06;;;;;;;;;;;;;;;;;;5052994;28;7129;-79
2022/10/20 06:46:34;;;;;;;;;;;;;;;;;;5052489;28;7161;-79
2022/10/20 06:49:05;;;;;;;;;;;;;;;;;;5052771;28;8500;-81
2022/10/20 06:51:31;;;;;;;;;;;;;;;;;;5052149;28;8611;-79
2022/10/20 06:53:58;;;;;;;;;;;;;;;;;;5052491;28;7172;-80
2022/10/20 06:56:25;;;;;;;;;;;;;;;;;;5052799;28;8419;-79
2022/10/20 06:58:53;;;;;;;;;;;;;;;;;;5052579;28;8449;-81
2022/10/20 07:01:23;;;;;;;;;;;;;;;;;;5052839;28;7035;-81
2022/10/20 07:03:51;;;;;;;;;;;;;;;;;;5052861;28;7103;-80
2022/10/20 07:06:19;;;;;;;;;;;;;;;;;;5053135;28;7149;-80
2022/10/20 07:08:46;;;;;;;;;;;;;;;;;;5052900;28;8777;-81
2022/10/20 07:11:13;;;;;;;;;;;;;;;;;;5053466;28;8448;-81
2022/10/20 07:13:39;;;;;;;;;;;;;;;;;;5053104;28;8469;-81
2022/10/20 07:16:06;;;;;;;;;;;;;;;;;;5052674;28;7165;-80
2022/10/20 07:18:32;;;;;;;;;;;;;;;;;;5052428;28;8425;-80
2022/10/20 07:20:59;;;;;;;;;;;;;;;;;;5052904;28;8384;-79
2022/10/20 07:23:29;;;;;;;;;;;;;;;;;;5052714;28;7016;-80
2022/10/20 07:26:00;;;;;;;;;;;;;;;;;;5052747;28;8744;-81
2022/10/20 07:28:26;;;;;;;;;;;;;;;;;;5035843;28;8610;-80
2022/10/20 07:30:52;;;;;;;;;;;;;;;;;;5053034;28;8379;-80
2022/10/20 07:33:17;;;;;;;;;;;;;;;;;;5052101;28;7135;-79
2022/10/20 07:35:43;;;;;;;;;;;;;;;;;;5052561;28;8392;-80
2022/10/20 07:38:08;;;;;;;;;;;;;;;;;;5051896;28;7076;-80
2022/10/20 07:40:33;;;;;;;;;;;;;;;;;;5051620;28;7405;-80
2022/10/20 07:42:59;;;;;;;;;;;;;;;;;;5052413;28;7314;-80
2022/10/20 07:45:24;;;;;;;;;;;;;;;;;;5052468;28;8682;-80
2022/10/20 07:47:50;;;;;;;;;;;;;;;;;;5051945;28;7164;-79
2022/10/20 07:50:16;;;;;;;;;;;;;;;;;;5052291;28;9200;-81
2022/10/20 07:52:41;;;;;;;;;;;;;;;;;;5052720;28;7139;-81
2022/10/20 07:55:07;;;;;;;;;;;;;;;;;;5052159;28;7231;-80
2022/10/20 07:57:33;;;;;;;;;;;;;;;;;;5052387;28;7198;-80
2022/10/20 07:59:58;;;;;;;;;;;;;;;;;;5051693;28;7325;-81
2022/10/20 08:02:24;;;;;;;;;;;;;;;;;;5051896;28;7006;-80
2022/10/20 08:04:49;;;;;;;;;;;;;;;;;;5052357;28;8398;-81
2022/10/20 08:07:15;;;;;;;;;;;;;;;;;;5053005;28;7008;-80
2022/10/20 08:09:41;;;;;;;;;;;;;;;;;;5052018;28;8682;-80
2022/10/20 08:12:07;;;;;;;;;;;;;;;;;;5052156;28;7000;-81
2022/10/20 08:14:35;;;;;;;;;;;;;;;;;;5051679;28;8539;-81
2022/10/20 08:17:01;;;;;;;;;;;;;;;;;;5050620;28;7024;-81
2022/10/20 08:19:27;;;;;;;;;;;;;;;;;;5051525;28;7238;-83
2022/10/20 08:21:53;;;;;;;;;;;;;;;;;;5051487;28;7155;-83
2022/10/20 08:24:18;;;;;;;;;;;;;;;;;;5051176;28;6969;-83
2022/10/20 08:26:44;;;;;;;;;;;;;;;;;;5050631;28;7129;-82
2022/10/20 08:29:11;;;;;;;;;;;;;;;;;;5051421;28;8458;-80
2022/10/20 08:31:37;;;;;;;;;;;;;;;;;;5051198;28;7258;-81
2022/10/20 08:34:02;;;;;;;;;;;;;;;;;;5050406;28;8437;-81
2022/10/20 08:36:28;;;;;;;;;;;;;;;;;;5050880;28;6795;-80
2022/10/20 08:38:55;;;;;;;;;;;;;;;;;;5050604;28;8413;-80
2022/10/20 08:41:24;;;;;;;;;;;;;;;;;;5050326;28;6996;-78
2022/10/20 08:43:51;;;;;;;;;;;;;;;;;;5050486;28;8447;-81
2022/10/20 08:46:19;;;;;;;;;;;;;;;;;;5050499;28;7419;-81
2022/10/20 08:48:47;;;;;;;;;;;;;;;;;;5050884;28;7187;-83
2022/10/20 08:51:24;;;;;;;;;;;;;;;;;;5051303;28;7152;-82
2022/10/20 08:53:52;;;;;;;;;;;;;;;;;;5050935;28;8392;-81
2022/10/20 08:56:22;;;;;;;;;;;;;;;;;;5051573;28;7037;-80
2022/10/20 08:58:48;;;;;;;;;;;;;;;;;;5051655;28;8320;-81
2022/10/20 09:01:20;;;;;;;;;;;;;;;;;;5051045;28;7033;-82
2022/10/20 09:03:48;;;;;;;;;;;;;;;;;;5050805;28;7030;-82
2022/10/20 09:06:15;;;;;;;;;;;;;;;;;;5051329;28;7415;-80
2022/10/20 09:08:42;;;;;;;;;;;;;;;;;;5050878;28;8439;-82
2022/10/20 09:11:13;;;;;;;;;;;;;;;;;;5050452;28;7163;-81
2022/10/20 09:13:39;;;;;;;;;;;;;;;;;;5051206;28;8713;-81
2022/10/20 09:16:10;;;;;;;;;;;;;;;;;;5051054;28;7222;-80
2022/10/20 09:18:37;;;;;;;;;;;;;;;;;;5034600;28;7135;-81
2022/10/20 09:21:07;;;;;;;;;;;;;;;;;;5050800;28;7113;-80
2022/10/20 09:23:37;;;;;;;;;;;;;;;;;;5050876;28;8388;-81
2022/10/20 09:26:03;;;;;;;;;;;;;;;;;;5050560;28;8481;-82
2022/10/20 09:28:29;;;;;;;;;;;;;;;;;;5051317;28;7166;-80
2022/10/20 09:30:56;;;;;;;;;;;;;;;;;;5050070;28;8387;-81
2022/10/20 09:33:21;;;;;;;;;;;;;;;;;;5051323;28;7047;-80
2022/10/20 09:35:49;;;;;;;;;;;;;;;;;;5033975;28;7139;-80
2022/10/20 09:38:22;;;;;;;;;;;;;;;;;;5050505;28;8495;-81
2022/10/20 09:41:05;;;;;;;;;;;;;;;;;;5050582;28;8863;-82
2022/10/20 09:43:32;;;;;;;;;;;;;;;;;;5050246;28;7120;-79
2022/10/20 09:46:03;;;;;;;;;;;;;;;;;;5050309;28;8692;-81
2022/10/20 09:48:37;;;;;;;;;;;;;;;;;;5050184;28;7201;-80
2022/10/20 09:51:06;;;;;;;;;;;;;;;;;;5050977;28;8532;-80
2022/10/20 09:53:36;;;;;;;;;;;;;;;;;;5049952;28;7230;-81
2022/10/20 09:56:02;;;;;;;;;;;;;;;;;;5050591;28;8666;-79
2022/10/20 09:58:30;;;;;;;;;;;;;;;;;;5050312;28;8755;-81
2022/10/20 10:00:59;;;;;;;;;;;;;;;;;;5050007;28;8312;-81
2022/10/20 10:03:26;;;;;;;;;;;;;;;;;;5050617;28;7165;-80
2022/10/20 10:05:56;;;;;;;;;;;;;;;;;;5051253;28;7037;-80
2022/10/20 10:08:24;;;;;;;;;;;;;;;;;;5051646;28;7430;-75
2022/10/20 10:11:01;;;;;;;;;;;;;;;;;;5050067;28;7145;-82
2022/10/20 10:13:29;;;;;;;;;;;;;;;;;;5049867;28;7214;-80
2022/10/20 10:16:00;;;;;;;;;;;;;;;;;;5049559;28;8559;-83
2022/10/20 10:18:26;;;;;;;;;;;;;;;;;;5049299;28;8885;-81
2022/10/20 10:21:00;;;;;;;;;;;;;;;;;;5049750;28;7177;-80
2022/10/20 10:23:27;;;;;;;;;;;;;;;;;;5035159;28;7138;-81
2022/10/20 10:25:53;;;;;;;;;;;;;;;;;;5050020;28;8248;-80
2022/10/20 10:28:18;;;;;;;;;;;;;;;;;;5049757;28;7090;-80
2022/10/20 10:30:44;;;;;;;;;;;;;;;;;;5033625;28;8270;-80
2022/10/20 10:33:22;;;;;;;;;;;;;;;;;;5050261;28;7421;-80
2022/10/20 10:35:48;;;;;;;;;;;;;;;;;;5033703;28;7024;-81
2022/10/20 10:38:14;;;;;;;;;;;;;;;;;;5050289;28;8736;-81
2022/10/20 10:40:58;;;;;;;;;;;;;;;;;;5050766;28;7013;-81
2022/10/20 10:43:28;;;;;;;;;;;;;;;;;;5036738;28;7105;-82
2022/10/20 10:46:07;;;;;;;;;;;;;;;;;;5036974;28;7255;-83
2022/10/20 10:48:32;;;;;;;;;;;;;;;;;;5053918;28;7170;-84
2022/10/20 10:51:09;;;;;;;;;;;;;;;;;;5040677;28;8426;-82
2022/10/20 10:53:38;;;;;;;;;;;;;;;;;;5053429;28;7079;-81
2022/10/20 10:56:03;;;;;;;;;;;;;;;;;;5036837;28;7139;-82
2022/10/20 10:58:29;;;;;;;;;;;;;;;;;;5036614;28;9635;-81
2022/10/20 11:01:09;;;;;;;;;;;;;;;;;;5036846;28;8442;-81
2022/10/20 11:03:35;;;;;;;;;;;;;;;;;;5036588;28;8274;-81
2022/10/20 11:06:09;;;;;;;;;;;;;;;;;;5036425;28;8755;-82
2022/10/20 11:08:46;;;;;;;;;;;;;;;;;;5052974;28;8491;-81
2022/10/20 11:11:12;;;;;;;;;;;;;;;;;;5036505;28;8391;-82
2022/10/20 11:13:48;;;;;;;;;;;;;;;;;;5036749;28;8338;-82
2022/10/20 11:16:32;;;;;;;;;;;;;;;;;;5052971;28;7158;-82
2022/10/20 11:19:16;;;;;;;;;;;;;;;;;;5035945;28;8434;-82
2022/10/20 11:21:55;;;;;;;;;;;;;;;;;;5036071;28;8362;-82
2022/10/20 11:24:29;;;;;;;;;;;;;;;;;;5053451;28;8414;-82
2022/10/20 11:27:09;;;;;;;;;;;;;;;;;;5035877;28;8405;-83
2022/10/20 11:29:34;;;;;;;;;;;;;;;;;;5053447;28;8303;-82
2022/10/20 11:32:15;;;;;;;;;;;;;;;;;;5035899;28;8672;-80
2022/10/20 11:34:49;;;;;;;;;;;;;;;;;;5036130;28;8434;-82
2022/10/20 11:37:27;;;;;;;;;;;;;;;;;;5036334;28;7131;-82
2022/10/20 11:40:13;;;;;;;;;;;;;;;;;;5052850;28;7122;-82
2022/10/20 11:42:56;;;;;;;;;;;;;;;;;;5052184;28;7197;-83
2022/10/20 11:45:24;;;;;;;;;;;;;;;;;;5052698;28;8398;-80
2022/10/20 11:47:58;;;;;;;;;;;;;;;;;;5036089;28;7206;-81
2022/10/20 11:50:24;;;;;;;;;;;;;;;;;;5052205;28;8565;-82
2022/10/20 11:53:14;;;;;;;;;;;;;;;;;;5051205;28;7012;-82
2022/10/20 11:55:58;;;;;;;;;;;;;;;;;;5052442;28;8274;-82
2022/10/20 11:58:34;;;;;;;;;;;;;;;;;;5035558;28;7134;-80
2022/10/20 12:01:06;;;;;;;;;;;;;;;;;;5052107;28;7109;-81
2022/10/20 12:03:47;;;;;;;;;;;;;;;;;;5035322;28;8676;-82
2022/10/20 12:06:22;;;;;;;;;;;;;;;;;;5052175;28;7160;-82
2022/10/20 12:08:59;;;;;;;;;;;;;;;;;;5052103;28;7180;-82
2022/10/20 12:11:28;;;;;;;;;;;;;;;;;;5034526;28;7183;-82
2022/10/20 12:14:00;;;;;;;;;;;;;;;;;;5035672;28;8384;-83
2022/10/20 12:16:44;;;;;;;;;;;;;;;;;;5047059;28;6817;-81
2022/10/20 12:19:36;;;;;;;;;;;;;;;;;;5033420;28;7162;-80
2022/10/20 12:22:14;;;;;;;;;;;;;;;;;;5014958;28;7057;-81
2022/10/20 12:24:41;;;;;;;;;;;;;;;;;;5032884;28;7041;-77
2022/10/20 12:27:09;;;;;;;;;;;;;;;;;;5016442;28;7499;-80
2022/10/20 12:29:35;;;;;;;;;;;;;;;;;;5035022;28;7043;-79
2022/10/20 12:32:30;;;;;;;;;;;;;;;;;;5033293;28;8886;-81
2022/10/20 12:34:57;;;;;;;;;;;;;;;;;;4969785;28;8441;-85
2022/10/20 12:37:23;;;;;;;;;;;;;;;;;;5036067;28;7797;-77
2022/10/20 12:39:48;;;;;;;;;;;;;;;;;;5044550;28;7139;-77
2022/10/20 12:42:31;;;;;;;;;;;;;;;;;;5061080;28;7146;-79
2022/10/20 12:45:06;;;;;;;;;;;;;;;;;;5037730;28;7217;-87
2022/10/20 12:47:34;;;;;;;;;;;;;;;;;;5043808;28;6816;-88
2022/10/20 12:50:22;;;;;;;;;;;;;;;;;;5056375;28;8587;-83
2022/10/20 12:52:47;;;;;;;;;;;;;;;;;;5034242;28;7080;-85
2022/10/20 12:55:20;;;;;;;;;;;;;;;;;;5052597;28;7134;-77
2022/10/20 12:57:46;;;;;;;;;;;;;;;;;;5008294;28;7116;-82
2022/10/20 13:00:18;;;;;;;;;;;;;;;;;;5030730;28;7199;-79
2022/10/20 13:02:49;;;;;;;;;;;;;;;;;;5031540;28;8496;-84
2022/10/20 13:05:14;;;;;;;;;;;;;;;;;;5035055;28;7165;-81
2022/10/20 13:07:51;;;;;;;;;;;;;;;;;;5033040;28;7026;-83
2022/10/20 13:10:26;;;;;;;;;;;;;;;;;;5032864;28;8882;-83
2022/10/20 13:13:11;;;;;;;;;;;;;;;;;;5031468;28;8435;-83
2022/10/20 13:15:42;;;;;;;;;;;;;;;;;;5048204;28;7075;-85
2022/10/20 13:18:11;;;;;;;;;;;;;;;;;;5032894;28;7247;-82
2022/10/20 13:20:58;;;;;;;;;;;;;;;;;;5033727;28;8431;-85
2022/10/20 13:23:29;;;;;;;;;;;;;;;;;;5050607;28;8335;-84
2022/10/20 13:25:57;;;;;;;;;;;;;;;;;;5033361;28;8308;-87
2022/10/20 13:28:26;;;;;;;;;;;;;;;;;;5049424;28;8407;-85
2022/10/20 13:30:51;;;;;;;;;;;;;;;;;;5049234;28;7166;-83
2022/10/20 13:33:36;;;;;;;;;;;;;;;;;;5050117;28;7363;-84
2022/10/20 13:36:16;;;;;;;;;;;;;;;;;;5033516;28;8295;-83
2022/10/20 13:39:00;;;;;;;;;;;;;;;;;;5049084;28;7176;-83
2022/10/20 13:41:41;;;;;;;;;;;;;;;;;;5032463;28;8443;-81
2022/10/20 13:44:25;;;;;;;;;;;;;;;;;;5033544;28;8376;-82
2022/10/20 13:47:09;;;;;;;;;;;;;;;;;;5033068;28;7011;-85
2022/10/20 13:49:52;;;;;;;;;;;;;;;;;;5032793;28;8323;-84
2022/10/20 13:52:20;;;;;;;;;;;;;;;;;;5032087;28;8509;-83
2022/10/20 13:54:49;;;;;;;;;;;;;;;;;;5048243;28;7026;-84
2022/10/20 13:57:20;;;;;;;;;;;;;;;;;;5049165;28;8387;-83
2022/10/20 13:59:55;;;;;;;;;;;;;;;;;;5032316;28;9739;-85
2022/10/20 14:02:25;;;;;;;;;;;;;;;;;;5050239;28;7340;-84
2022/10/20 14:05:20;;;;;;;;;;;;;;;;;;5049487;28;8448;-79
2022/10/20 14:07:46;;;;;;;;;;;;;;;;;;5016426;28;7152;-84
2022/10/20 14:10:21;;;;;;;;;;;;;;;;;;5032987;28;9319;-85
2022/10/20 14:12:47;;;;;;;;;;;;;;;;;;5032975;28;8573;-84
2022/10/20 14:15:19;;;;;;;;;;;;;;;;;;5049929;28;7242;-86
2022/10/20 14:17:54;;;;;;;;;;;;;;;;;;5054425;28;7022;-83
2022/10/20 14:20:21;;;;;;;;;;;;;;;;;;5053789;28;8716;-83
2022/10/20 14:22:47;;;;;;;;;;;;;;;;;;5053483;28;8884;-83
2022/10/20 14:25:13;;;;;;;;;;;;;;;;;;5053724;28;8416;-82
2022/10/20 14:27:39;;;;;;;;;;;;;;;;;;5053997;28;6997;-82
2022/10/20 14:30:05;;;;;;;;;;;;;;;;;;5053425;28;8612;-83
2022/10/20 14:32:34;;;;;;;;;;;;;;;;;;5054165;28;8428;-84
2022/10/20 14:35:02;;;;;;;;;;;;;;;;;;5053598;28;7158;-84
2022/10/20 14:37:31;;;;;;;;;;;;;;;;;;5053681;28;7078;-83
2022/10/20 14:39:59;;;;;;;;;;;;;;;;;;5053441;28;9826;-84
2022/10/20 14:42:28;;;;;;;;;;;;;;;;;;5052688;28;8314;-85
2022/10/20 14:44:57;;;;;;;;;;;;;;;;;;5053044;28;7376;-84
2022/10/20 14:47:26;;;;;;;;;;;;;;;;;;5053746;28;7176;-83
2022/10/20 14:49:54;;;;;;;;;;;;;;;;;;5053438;28;7163;-84
2022/10/20 14:52:22;;;;;;;;;;;;;;;;;;5053333;28;7039;-83
2022/10/20 14:54:48;;;;;;;;;;;;;;;;;;5057614;28;7050;-77
2022/10/20 14:57:14;;;;;;;;;;;;;;;;;;5065469;28;7141;-77
2022/10/20 14:59:51;;;;;;;;;;;;;;;;;;5041231;28;9454;-85
2022/10/20 15:02:19;;;;;;;;;;;;;;;;;;5053039;28;7166;-84
2022/10/20 15:04:47;;;;;;;;;;;;;;;;;;5052581;28;7162;-84
2022/10/20 15:07:16;;;;;;;;;;;;;;;;;;5053429;28;9207;-84
2022/10/20 15:09:44;;;;;;;;;;;;;;;;;;5053205;28;8403;-83
2022/10/20 15:12:15;;;;;;;;;;;;;;;;;;5052884;28;7185;-84
2022/10/20 15:14:43;;;;;;;;;;;;;;;;;;5053184;28;7036;-81
2022/10/20 15:17:48;;;;;;;;;;;;;;;;;;5052584;28;7034;-82
2022/10/20 15:20:31;;;;;;;;;;;;;;;;;;4960352;28;7117;-83
2022/10/20 15:22:59;;;;;;;;;;;;;;;;;;4960079;28;7052;-84
2022/10/20 15:25:30;;;;;;;;;;;;;;;;;;4959647;28;7061;-82
2022/10/20 15:27:57;;;;;;;;;;;;;;;;;;4958813;28;7122;-84
2022/10/20 15:30:24;;;;;;;;;;;;;;;;;;4960544;28;7041;-83
2022/10/20 15:32:50;;;;;;;;;;;;;;;;;;4959909;28;7190;-83
2022/10/20 15:35:18;;;;;;;;;;;;;;;;;;4959869;28;7184;-82
2022/10/20 15:37:48;;;;;;;;;;;;;;;;;;4959963;28;7246;-83
2022/10/20 15:40:13;;;;;;;;;;;;;;;;;;4960083;28;8586;-86
2022/10/20 15:42:39;;;;;;;;;;;;;;;;;;4959461;28;8421;-83
2022/10/20 15:45:22;;;;;;;;;;;;;;;;;;4959672;28;8668;-84
2022/10/20 15:47:47;;;;;;;;;;;;;;;;;;4959982;28;8467;-82
2022/10/20 15:50:14;;;;;;;;;;;;;;;;;;4972129;28;7146;-84
2022/10/20 15:52:40;;;;;;;;;;;;;;;;;;5052183;28;7057;-83
2022/10/20 15:55:12;;;;;;;;;;;;;;;;;;5052342;28;8422;-84
2022/10/20 15:57:37;;;;;;;;;;;;;;;;;;5035531;28;7185;-83
2022/10/20 16:00:03;;;;;;;;;;;;;;;;;;5035248;28;8437;-83
2022/10/20 16:02:28;;;;;;;;;;;;;;;;;;5052308;28;7150;-84
2022/10/20 16:04:54;;;;;;;;;;;;;;;;;;5035284;28;7386;-84
2022/10/20 16:07:19;;;;;;;;;;;;;;;;;;5031425;28;7141;-84
2022/10/20 16:09:45;;;;;;;;;;;;;;;;;;5031907;28;7150;-83
2022/10/20 16:12:10;;;;;;;;;;;;;;;;;;5031384;28;8523;-83
2022/10/20 16:14:36;;;;;;;;;;;;;;;;;;5031505;28;7126;-84
2022/10/20 16:17:02;;;;;;;;;;;;;;;;;;5031767;28;7300;-83
2022/10/20 16:19:28;;;;;;;;;;;;;;;;;;5031794;28;8305;-85
2022/10/20 16:21:53;;;;;;;;;;;;;;;;;;5030277;28;8680;-81
2022/10/20 16:24:18;;;;;;;;;;;;;;;;;;5035155;28;8763;-83
2022/10/20 16:26:44;;;;;;;;;;;;;;;;;;5048886;28;8437;-81
2022/10/20 16:29:09;;;;;;;;;;;;;;;;;;5050131;28;8781;-85
2022/10/20 16:31:35;;;;;;;;;;;;;;;;;;5047700;28;7016;-85
2022/10/20 16:34:00;;;;;;;;;;;;;;;;;;5013985;28;7098;-83
2022/10/20 16:36:26;;;;;;;;;;;;;;;;;;5014723;28;7151;-81
2022/10/20 16:38:56;;;;;;;;;;;;;;;;;;5013581;28;7389;-82
2022/10/20 16:41:22;;;;;;;;;;;;;;;;;;5024952;28;8515;-83
2022/10/20 16:43:47;;;;;;;;;;;;;;;;;;5014893;28;8631;-84
2022/10/20 16:46:14;;;;;;;;;;;;;;;;;;5014499;28;8411;-83
2022/10/20 16:48:39;;;;;;;;;;;;;;;;;;5014616;28;7230;-83
2022/10/20 16:51:06;;;;;;;;;;;;;;;;;;5014544;28;7022;-84
2022/10/20 16:53:32;;;;;;;;;;;;;;;;;;5026966;28;8437;-83
2022/10/20 16:55:57;;;;;;;;;;;;;;;;;;5031594;28;8387;-82
2022/10/20 16:58:23;;;;;;;;;;;;;;;;;;5031481;28;7003;-83
2022/10/20 17:00:56;;;;;;;;;;;;;;;;;;5047631;28;9270;-84
2022/10/20 17:03:22;;;;;;;;;;;;;;;;;;5031111;28;8547;-85
2022/10/20 17:05:58;;;;;;;;;;;;;;;;;;5030789;28;7023;-84
2022/10/20 17:08:25;;;;;;;;;;;;;;;;;;5030881;28;8389;-86
2022/10/20 17:10:58;;;;;;;;;;;;;;;;;;5031221;28;8944;-85
2022/10/20 17:13:24;;;;;;;;;;;;;;;;;;5030995;28;7171;-84
2022/10/20 17:15:50;;;;;;;;;;;;;;;;;;5031180;28;8381;-84